Time;durP1;ratioP1;P1;durP2;ratioP2;P2;SDS_P1;SDS_P2;PMS_P1;PMS_P2;Temp;Humidity;BMP_temperature;BMP_pressure;BME280_temperature;BME280_humidity;BME280_pressure;Samples;Min_cycle;Max_cycle;Signal;HPM_P1;HPM_P2
2022/10/11 00:01:16;;;;;;;30.77;8.55;;;;;;;9.27;100.00;101996.97;5009801;28;20052;-75
2022/10/11 00:03:43;;;;;;;23.67;7.40;;;;;;;9.29;100.00;101994.69;4992129;28;20057;-75
2022/10/11 00:06:10;;;;;;;22.38;7.60;;;;;;;9.37;100.00;102006.69;5009507;28;20104;-75
2022/10/11 00:08:36;;;;;;;20.88;7.63;;;;;;;9.35;100.00;101997.97;5014184;28;20049;-75
2022/10/11 00:11:05;;;;;;;23.73;7.03;;;;;;;9.36;100.00;101999.56;5008531;28;20045;-78
2022/10/11 00:13:32;;;;;;;18.73;6.57;;;;;;;9.32;100.00;102002.22;4995461;28;20104;-75
2022/10/11 00:15:58;;;;;;;21.70;7.78;;;;;;;9.20;100.00;102004.28;5013878;28;20053;-75
2022/10/11 00:18:25;;;;;;;21.85;6.53;;;;;;;9.22;100.00;102004.75;5010272;28;20072;-76
2022/10/11 00:21:05;;;;;;;19.35;7.13;;;;;;;9.20;100.00;102012.56;5007983;28;20801;-76
2022/10/11 00:23:32;;;;;;;20.15;6.88;;;;;;;9.17;100.00;102002.22;5014428;28;20828;-76
2022/10/11 00:26:00;;;;;;;18.80;6.70;;;;;;;9.20;100.00;102010.63;5013512;28;20061;-77
2022/10/11 00:28:28;;;;;;;19.80;6.22;;;;;;;9.16;100.00;102001.44;5010063;28;20065;-77
2022/10/11 00:30:55;;;;;;;18.08;6.38;;;;;;;9.07;100.00;102014.63;5007023;28;21042;-76
2022/10/11 00:33:22;;;;;;;17.25;6.72;;;;;;;9.06;100.00;102010.28;5006969;28;20060;-77
2022/10/11 00:35:48;;;;;;;16.70;6.72;;;;;;;9.04;100.00;102017.31;5009239;28;20049;-77
2022/10/11 00:38:15;;;;;;;21.92;7.07;;;;;;;8.93;100.00;102014.25;5007871;28;20057;-77
2022/10/11 00:40:42;;;;;;;17.98;6.50;;;;;;;8.88;100.00;102016.50;5013341;28;20056;-77
2022/10/11 00:43:22;;;;;;;20.98;6.78;;;;;;;8.81;100.00;102032.88;5004759;28;20814;-76
2022/10/11 00:46:21;;;;;;;17.10;5.57;;;;;;;8.76;100.00;102025.63;5007976;28;20110;-78
2022/10/11 00:48:52;;;;;;;16.92;6.28;;;;;;;8.75;100.00;102024.03;4998042;28;20061;-77
2022/10/11 00:51:36;;;;;;;18.13;6.13;;;;;;;8.73;100.00;102031.88;5006263;28;20061;-77
2022/10/11 00:54:03;;;;;;;17.58;6.07;;;;;;;8.70;100.00;102021.53;5012887;28;20119;-76
2022/10/11 00:56:34;;;;;;;18.52;5.35;;;;;;;8.63;100.00;102032.38;4990704;28;20045;-77
2022/10/11 00:59:04;;;;;;;17.13;5.60;;;;;;;8.62;100.00;102024.44;5012927;28;20052;-76
2022/10/11 01:01:31;;;;;;;20.17;5.85;;;;;;;8.63;100.00;102034.31;5019593;28;20064;-76
2022/10/11 01:03:58;;;;;;;16.60;5.20;;;;;;;8.63;100.00;102026.84;5014316;28;20052;-77
2022/10/11 01:06:24;;;;;;;17.30;5.00;;;;;;;8.69;100.00;102030.97;5015722;28;20061;-76
2022/10/11 01:08:51;;;;;;;15.55;5.72;;;;;;;8.69;100.00;102033.72;5014766;28;20045;-75
2022/10/11 01:11:21;;;;;;;18.25;5.82;;;;;;;8.72;100.00;102046.81;5012841;28;20895;-77
2022/10/11 01:14:09;;;;;;;16.88;5.80;;;;;;;8.68;100.00;102040.41;5011294;28;20049;-76
2022/10/11 01:17:14;;;;;;;15.40;6.05;;;;;;;8.66;100.00;102045.47;5015687;28;20072;-77
2022/10/11 01:19:44;;;;;;;17.40;5.47;;;;;;;8.68;100.00;102040.41;5002574;28;20049;-77
2022/10/11 01:22:32;;;;;;;19.08;5.95;;;;;;;8.64;100.00;102044.22;4997060;28;20045;-76
2022/10/11 01:25:04;;;;;;;19.05;5.20;;;;;;;8.58;100.00;102046.44;5009127;28;20052;-78
2022/10/11 01:27:52;;;;;;;13.20;4.72;;;;;;;8.45;100.00;102047.63;4987042;28;20060;-76
2022/10/11 01:30:30;;;;;;;19.95;5.97;;;;;;;8.36;100.00;102048.91;5009484;28;20719;-76
2022/10/11 01:33:15;;;;;;;18.10;5.18;;;;;;;8.32;100.00;102046.06;5002653;28;20597;-75
2022/10/11 01:35:47;;;;;;;17.60;5.30;;;;;;;8.34;100.00;102059.50;5008481;28;20044;-75
2022/10/11 01:38:29;;;;;;;17.13;5.43;;;;;;;8.22;100.00;102054.03;5006282;28;20061;-75
2022/10/11 01:41:02;;;;;;;21.60;5.63;;;;;;;8.22;100.00;102054.03;5003082;28;20045;-75
2022/10/11 01:43:29;;;;;;;15.32;5.03;;;;;;;8.25;100.00;102054.13;5011749;28;20049;-75
2022/10/11 01:45:57;;;;;;;13.73;5.00;;;;;;;8.28;100.00;102053.44;5011384;28;20053;-78
2022/10/11 01:48:24;;;;;;;17.55;6.20;;;;;;;8.21;100.00;102055.16;5010900;28;20065;-76
2022/10/11 01:51:02;;;;;;;15.48;5.13;;;;;;;8.19;100.00;102057.44;5010316;28;20705;-74
2022/10/11 01:54:06;;;;;;;14.18;5.32;;;;;;;8.26;100.00;102054.94;5014758;28;20044;-75
2022/10/11 01:56:50;;;;;;;15.20;5.30;;;;;;;8.30;100.00;102044.81;5009488;28;20069;-76
2022/10/11 01:59:48;;;;;;;14.90;5.03;;;;;;;8.23;100.00;102044.63;4987935;28;20147;-79
2022/10/11 02:02:52;;;;;;;19.13;5.40;;;;;;;8.14;100.00;102052.19;5031387;28;20055;-75
2022/10/11 02:05:30;;;;;;;14.15;5.65;;;;;;;8.12;100.00;102052.53;5019376;28;20072;-75
2022/10/11 02:08:22;;;;;;;17.13;4.80;;;;;;;8.01;100.00;102059.69;5028055;28;20068;-77
2022/10/11 02:11:14;;;;;;;14.65;5.50;;;;;;;8.03;100.00;102046.34;5023594;28;20056;-75
2022/10/11 02:13:53;;;;;;;15.73;5.63;;;;;;;8.07;100.00;102053.56;5025520;28;20103;-75
2022/10/11 02:16:25;;;;;;;14.32;5.75;;;;;;;8.12;100.00;102058.03;5016970;28;20046;-76
2022/10/11 02:18:55;;;;;;;16.05;5.13;;;;;;;8.15;100.00;102059.28;5019417;28;20530;-75
2022/10/11 02:21:22;;;;;;;15.70;5.30;;;;;;;8.18;100.00;102062.16;5015541;28;20053;-76
2022/10/11 02:23:54;;;;;;;20.85;6.15;;;;;;;8.20;100.00;102059.84;5035883;28;20068;-76
2022/10/11 02:26:23;;;;;;;14.45;4.75;;;;;;;8.15;100.00;102060.09;5031314;28;20053;-75
2022/10/11 02:28:55;;;;;;;18.02;6.85;;;;;;;7.95;100.00;102055.56;5007917;28;20053;-75
2022/10/11 02:31:23;;;;;;;16.25;5.53;;;;;;;7.93;100.00;102068.88;5019533;28;20049;-75
2022/10/11 02:34:13;;;;;;;17.65;5.97;;;;;;;7.90;100.00;102064.06;5023890;28;20053;-75
2022/10/11 02:37:02;;;;;;;18.02;6.22;;;;;;;7.79;100.00;102062.91;5013690;28;20050;-75
2022/10/11 02:39:47;;;;;;;15.65;5.07;;;;;;;7.68;100.00;102070.88;5022128;28;20061;-75
2022/10/11 02:42:25;;;;;;;16.02;5.25;;;;;;;7.71;100.00;102069.38;5021835;28;20058;-77
2022/10/11 02:45:10;;;;;;;16.02;5.20;;;;;;;7.64;100.00;102067.19;5011693;28;20045;-76
2022/10/11 02:47:37;;;;;;;20.08;5.50;;;;;;;7.60;100.00;102074.53;5007451;28;20104;-75
2022/10/11 02:50:04;;;;;;;18.13;5.95;;;;;;;7.51;100.00;102073.03;5022258;28;20056;-77
2022/10/11 02:52:30;;;;;;;17.60;5.50;;;;;;;7.49;100.00;102069.81;5022253;28;20061;-76
2022/10/11 02:54:57;;;;;;;20.60;6.22;;;;;;;7.52;100.00;102077.38;5019405;28;20057;-76
2022/10/11 02:57:23;;;;;;;15.85;5.50;;;;;;;7.57;100.00;102079.94;5024757;28;20084;-76
2022/10/11 02:59:50;;;;;;;18.20;5.50;;;;;;;7.58;100.00;102081.53;5012734;28;20054;-77
2022/10/11 03:02:16;;;;;;;12.88;4.88;;;;;;;7.56;100.00;102078.34;5034469;28;20108;-77
2022/10/11 03:04:42;;;;;;;14.02;4.82;;;;;;;7.56;100.00;102087.38;5025549;28;20045;-77
2022/10/11 03:07:09;;;;;;;14.43;5.30;;;;;;;7.60;100.00;102085.53;5029851;28;20119;-76
2022/10/11 03:09:35;;;;;;;17.55;5.95;;;;;;;7.56;100.00;102086.59;5019893;28;20429;-76
2022/10/11 03:12:02;;;;;;;25.00;6.10;;;;;;;7.53;100.00;102093.56;5024719;28;20399;-75
2022/10/11 03:14:28;;;;;;;11.55;5.50;;;;;;;7.57;100.00;102096.47;5016722;28;20041;-76
2022/10/11 03:16:55;;;;;;;15.50;5.07;;;;;;;7.58;100.00;102096.13;5019782;28;20053;-76
2022/10/11 03:19:37;;;;;;;13.35;4.90;;;;;;;7.48;100.00;102090.25;4999154;28;20091;-74
2022/10/11 03:22:04;;;;;;;17.58;5.47;;;;;;;7.45;100.00;102097.25;5031757;28;20054;-76
2022/10/11 03:24:30;;;;;;;21.63;5.45;;;;;;;7.40;100.00;102091.16;5024635;28;20506;-76
2022/10/11 03:26:56;;;;;;;15.30;5.32;;;;;;;7.42;100.00;102102.63;5018083;28;20060;-76
2022/10/11 03:29:23;;;;;;;16.10;5.32;;;;;;;7.37;100.00;102102.88;5024420;28;20758;-74
2022/10/11 03:31:49;;;;;;;15.32;5.30;;;;;;;7.33;100.00;102105.47;5036963;28;20703;-76
2022/10/11 03:34:16;;;;;;;18.70;5.63;;;;;;;7.29;100.00;102110.06;5034962;28;20045;-76
2022/10/11 03:36:42;;;;;;;26.25;7.57;;;;;;;7.30;100.00;102110.88;5024409;28;20123;-76
2022/10/11 03:39:09;;;;;;;28.70;8.15;;;;;;;7.28;100.00;102111.22;5017368;28;20049;-76
2022/10/11 03:41:35;;;;;;;28.83;7.90;;;;;;;7.31;100.00;102126.25;5025325;28;20049;-76
2022/10/11 03:44:02;;;;;;;30.63;9.75;;;;;;;7.33;100.00;102123.97;5024262;28;20041;-76
2022/10/11 03:46:29;;;;;;;33.92;9.05;;;;;;;7.33;100.00;102126.72;5012423;28;20469;-76
2022/10/11 03:48:55;;;;;;;24.83;7.65;;;;;;;7.34;100.00;102128.31;5007568;28;20046;-76
2022/10/11 03:51:21;;;;;;;26.40;9.00;;;;;;;7.35;100.00;102125.22;5022078;28;20054;-76
2022/10/11 03:53:48;;;;;;;32.97;9.32;;;;;;;7.38;100.00;102123.75;5026921;28;20053;-76
2022/10/11 03:56:14;;;;;;;40.45;10.38;;;;;;;7.43;100.00;102132.56;5023853;28;20054;-76
2022/10/11 03:58:41;;;;;;;39.90;10.48;;;;;;;7.45;100.00;102129.50;5012167;28;20128;-76
2022/10/11 04:01:08;;;;;;;39.90;11.02;;;;;;;7.48;100.00;102128.81;5004123;28;20063;-76
2022/10/11 04:03:35;;;;;;;60.35;12.35;;;;;;;7.47;100.00;102135.47;5024690;28;20046;-76
2022/10/11 04:06:01;;;;;;;50.60;12.18;;;;;;;7.44;100.00;102133.41;5016653;28;20050;-76
2022/10/11 04:08:28;;;;;;;44.78;13.15;;;;;;;7.44;100.00;102133.41;5024399;28;20088;-75
2022/10/11 04:10:55;;;;;;;61.85;13.48;;;;;;;7.43;100.00;102134.56;5017051;28;20053;-76
2022/10/11 04:13:21;;;;;;;42.83;12.18;;;;;;;7.43;100.00;102129.03;5022936;28;20107;-76
2022/10/11 04:15:47;;;;;;;46.15;12.57;;;;;;;7.40;100.00;102140.75;5013849;28;20045;-76
2022/10/11 04:18:14;;;;;;;45.55;12.88;;;;;;;7.42;100.00;102149.44;5025854;28;20072;-76
2022/10/11 04:20:41;;;;;;;41.95;11.05;;;;;;;7.37;100.00;102149.69;5012644;28;20058;-76
2022/10/11 04:23:08;;;;;;;45.90;12.10;;;;;;;7.41;100.00;102151.41;5027915;28;20054;-76
2022/10/11 04:25:37;;;;;;;42.67;12.10;;;;;;;7.42;100.00;102155.75;5010854;28;20046;-76
2022/10/11 04:28:04;;;;;;;51.60;12.98;;;;;;;7.41;100.00;102150.59;5001223;28;20550;-76
2022/10/11 04:30:30;;;;;;;50.88;11.20;;;;;;;7.40;100.00;102147.03;5026735;28;20049;-76
2022/10/11 04:32:56;;;;;;;46.38;12.00;;;;;;;7.44;100.00;102160.94;5027864;28;20049;-76
2022/10/11 04:35:23;;;;;;;43.50;9.90;;;;;;;7.43;100.00;102153.81;5018175;28;20053;-76
2022/10/11 04:37:49;;;;;;;41.47;10.15;;;;;;;7.37;100.00;102149.69;5031818;28;20053;-76
2022/10/11 04:40:16;;;;;;;31.88;9.75;;;;;;;7.38;100.00;102154.03;5018036;28;20429;-76
2022/10/11 04:42:42;;;;;;;37.03;10.32;;;;;;;7.42;100.00;102163.22;5003699;28;20501;-76
2022/10/11 04:45:09;;;;;;;38.05;10.40;;;;;;;7.40;100.00;102166.31;5026426;28;20050;-77
2022/10/11 04:47:35;;;;;;;40.95;11.15;;;;;;;7.33;100.00;102168.03;5023436;28;20058;-76
2022/10/11 04:50:02;;;;;;;31.38;9.75;;;;;;;7.23;100.00;102169.25;5002942;28;20057;-76
2022/10/11 04:52:29;;;;;;;29.88;9.77;;;;;;;7.21;100.00;102165.22;5019791;28;20133;-76
2022/10/11 04:54:55;;;;;;;37.13;10.32;;;;;;;7.21;100.00;102173.50;5022788;28;20143;-76
2022/10/11 04:57:22;;;;;;;38.28;9.55;;;;;;;7.20;100.00;102174.63;4999559;28;20068;-78
2022/10/11 04:59:48;;;;;;;28.77;9.27;;;;;;;7.15;100.00;102172.09;5017036;28;20057;-77
2022/10/11 05:02:16;;;;;;;34.15;8.48;;;;;;;7.11;100.00;102171.97;5009371;28;20058;-76
2022/10/11 05:04:42;;;;;;;33.05;9.02;;;;;;;7.14;100.00;102178.75;5014757;28;20045;-77
2022/10/11 05:07:09;;;;;;;29.92;9.45;;;;;;;7.12;100.00;102173.56;5011843;28;20057;-75
2022/10/11 05:09:35;;;;;;;31.90;10.18;;;;;;;7.06;100.00;102177.69;5031190;28;20052;-76
2022/10/11 05:12:02;;;;;;;27.00;8.02;;;;;;;7.03;100.00;102183.88;5040114;28;20045;-76
2022/10/11 05:14:28;;;;;;;25.60;8.88;;;;;;;6.94;100.00;102191.41;5028376;28;20802;-76
2022/10/11 05:16:55;;;;;;;43.72;11.00;;;;;;;6.83;100.00;102187.47;5032137;28;20056;-76
2022/10/11 05:19:22;;;;;;;32.58;8.98;;;;;;;6.81;100.00;102191.66;5027657;28;20053;-77
2022/10/11 05:21:48;;;;;;;32.63;9.38;;;;;;;6.77;100.00;102196.25;5024860;28;20057;-77
2022/10/11 05:24:15;;;;;;;41.20;10.23;;;;;;;6.71;100.00;102197.56;5010423;28;20052;-76
2022/10/11 05:26:41;;;;;;;36.40;9.50;;;;;;;6.69;100.00;102195.19;5027859;28;20516;-76
2022/10/11 05:29:08;;;;;;;33.83;9.15;;;;;;;6.71;100.00;102192.06;5021323;28;20046;-76
2022/10/11 05:31:34;;;;;;;37.13;11.32;;;;;;;6.74;100.00;102192.22;5016201;28;20058;-76
2022/10/11 05:34:01;;;;;;;40.60;12.93;;;;;;;6.78;100.00;102189.63;5021124;28;20053;-75
2022/10/11 05:36:27;;;;;;;41.42;10.60;;;;;;;6.82;100.00;102188.59;5022191;28;20045;-74
2022/10/11 05:38:53;;;;;;;35.85;10.50;;;;;;;6.85;100.00;102201.66;5026402;28;20107;-76
2022/10/11 05:41:20;;;;;;;36.88;13.25;;;;;;;6.80;100.00;102201.06;5019746;28;20053;-76
2022/10/11 05:43:46;;;;;;;46.25;17.92;;;;;;;6.79;100.00;102204.97;5025290;28;20485;-75
2022/10/11 05:46:13;;;;;;;39.10;13.50;;;;;;;6.75;100.00;102196.56;5021048;28;20050;-76
2022/10/11 05:48:39;;;;;;;29.50;10.90;;;;;;;6.83;100.00;102205.91;5029002;28;20091;-75
2022/10/11 05:51:08;;;;;;;29.88;9.77;;;;;;;6.80;100.00;102206.56;5040847;28;20466;-75
2022/10/11 05:53:36;;;;;;;29.17;9.02;;;;;;;6.79;100.00;102207.72;5005668;28;20103;-76
2022/10/11 05:56:03;;;;;;;31.42;10.80;;;;;;;6.79;100.00;102210.47;5030050;28;20108;-75
2022/10/11 05:58:30;;;;;;;29.63;10.50;;;;;;;6.80;100.00;102225.84;5019992;28;20422;-75
2022/10/11 06:00:57;;;;;;;27.63;9.73;;;;;;;6.79;100.00;102219.50;5016414;28;20053;-75
2022/10/11 06:03:23;;;;;;;26.27;9.55;;;;;;;6.79;100.00;102227.75;5042534;28;20120;-77
2022/10/11 06:05:50;;;;;;;25.33;10.25;;;;;;;6.81;100.00;102230.19;5014529;28;20046;-74
2022/10/11 06:08:22;;;;;;;25.77;11.10;;;;;;;6.77;100.00;102219.06;5025307;28;20128;-75
2022/10/11 06:10:48;;;;;;;32.05;12.20;;;;;;;6.79;100.00;102232.47;5029947;28;20057;-75
2022/10/11 06:13:15;;;;;;;24.65;8.73;;;;;;;6.80;100.00;102232.16;5010173;28;20102;-76
2022/10/11 06:15:41;;;;;;;28.45;9.80;;;;;;;6.81;100.00;102235.69;5031790;28;20041;-75
2022/10/11 06:18:07;;;;;;;25.02;9.98;;;;;;;6.81;100.00;102233.75;5013691;28;20049;-75
2022/10/11 06:20:35;;;;;;;28.98;11.65;;;;;;;6.84;100.00;102229.50;5026694;28;20054;-75
2022/10/11 06:23:01;;;;;;;27.23;11.18;;;;;;;6.88;100.00;102239.53;5027644;28;20045;-75
2022/10/11 06:25:28;;;;;;;27.65;11.57;;;;;;;6.91;100.00;102241.59;5018770;28;20533;-76
2022/10/11 06:27:54;;;;;;;36.65;12.57;;;;;;;6.94;100.00;102246.44;5012993;28;20112;-75
2022/10/11 06:30:21;;;;;;;31.52;10.65;;;;;;;6.98;100.00;102246.56;5029512;28;20045;-75
2022/10/11 06:32:47;;;;;;;28.30;11.93;;;;;;;7.01;100.00;102259.66;5040115;28;20072;-76
2022/10/11 06:35:14;;;;;;;35.40;15.70;;;;;;;7.06;100.00;102254.75;5027117;28;20049;-76
2022/10/11 06:37:40;;;;;;;30.13;10.43;;;;;;;7.08;100.00;102262.66;4997656;28;20049;-76
2022/10/11 06:40:07;;;;;;;30.30;10.45;;;;;;;7.06;100.00;102257.50;5025367;28;20045;-76
2022/10/11 06:42:34;;;;;;;34.78;10.88;;;;;;;7.11;100.00;102254.56;5018833;28;20053;-76
2022/10/11 06:45:00;;;;;;;34.65;11.85;;;;;;;7.13;100.00;102260.50;5032526;28;20068;-76
2022/10/11 06:47:26;;;;;;;39.22;13.30;;;;;;;7.12;100.00;102266.38;5034272;28;20056;-76
2022/10/11 06:49:53;;;;;;;30.42;12.30;;;;;;;7.11;100.00;102259.25;5027915;28;20041;-77
2022/10/11 06:52:19;;;;;;;33.25;13.43;;;;;;;7.16;100.00;102270.84;5014120;28;20528;-76
2022/10/11 06:54:46;;;;;;;31.95;13.68;;;;;;;7.27;100.00;102282.28;5021935;28;20042;-77
2022/10/11 06:57:12;;;;;;;32.70;13.13;;;;;;;7.32;100.00;102282.06;5022766;28;20481;-76
2022/10/11 06:59:39;;;;;;;34.58;13.18;;;;;;;7.40;100.00;102286.69;5025417;28;20045;-77
2022/10/11 07:02:05;;;;;;;37.28;14.77;;;;;;;7.47;100.00;102286.94;5039006;28;20548;-77
2022/10/11 07:04:32;;;;;;;30.35;11.05;;;;;;;7.55;100.00;102288.81;5030419;28;20367;-77
2022/10/11 07:06:59;;;;;;;33.58;12.35;;;;;;;7.60;100.00;102296.88;5025963;28;20049;-76
2022/10/11 07:09:26;;;;;;;33.97;11.68;;;;;;;7.66;100.00;102295.50;5013090;28;20584;-76
2022/10/11 07:11:52;;;;;;;30.92;11.60;;;;;;;7.75;100.00;102301.72;5012986;28;20409;-76
2022/10/11 07:14:19;;;;;;;31.95;11.35;;;;;;;7.81;100.00;102303.13;5025774;28;20041;-76
2022/10/11 07:16:45;;;;;;;31.70;12.95;;;;;;;7.87;100.00;102297.03;5029130;28;20091;-76
2022/10/11 07:19:12;;;;;;;29.30;12.45;;;;;;;7.92;100.00;102296.84;5031443;28;20121;-76
2022/10/11 07:21:38;;;;;;;32.75;12.35;;;;;;;7.98;100.00;102302.94;5026672;28;20068;-76
2022/10/11 07:24:05;;;;;;;30.40;12.20;;;;;;;8.07;100.00;102296.16;5015967;28;20046;-76
2022/10/11 07:26:32;;;;;;;32.05;12.40;;;;;;;8.18;100.00;102310.31;5027889;28;20041;-76
2022/10/11 07:29:06;;;;;;;30.73;13.20;;;;;;;8.26;100.00;102314.94;5009866;28;20041;-76
2022/10/11 07:31:32;;;;;;;29.60;13.25;;;;;;;8.36;100.00;102314.50;5013274;28;20046;-77
2022/10/11 07:33:58;;;;;;;31.33;13.55;;;;;;;8.42;100.00;102315.06;5009314;28;20100;-76
2022/10/11 07:36:25;;;;;;;32.15;14.07;;;;;;;8.54;100.00;102310.38;5025537;28;20041;-73
2022/10/11 07:38:51;;;;;;;34.05;14.00;;;;;;;8.66;100.00;102313.13;5022451;28;20041;-73
2022/10/11 07:41:18;;;;;;;32.75;14.93;;;;;;;8.75;100.00;102310.25;5020352;28;20058;-75
2022/10/11 07:43:46;;;;;;;34.53;13.98;;;;;;;8.88;100.00;102306.31;5029219;28;20049;-75
2022/10/11 07:46:13;;;;;;;33.83;15.77;;;;;;;9.00;100.00;102311.81;5027057;28;20046;-75
2022/10/11 07:48:40;;;;;;;33.58;15.63;;;;;;;9.14;100.00;102307.53;5024079;28;20876;-73
2022/10/11 07:51:13;;;;;;;32.65;15.35;;;;;;;9.26;100.00;102303.94;4995721;28;20072;-73
2022/10/11 07:53:45;;;;;;;35.58;15.05;;;;;;;9.42;100.00;102304.81;5031163;28;20050;-74
2022/10/11 07:56:13;;;;;;;36.67;16.08;;;;;;;9.54;100.00;102308.31;5027277;28;20038;-73
2022/10/11 07:58:41;;;;;;;36.28;15.85;;;;;;;9.66;100.00;102308.25;5019953;28;20822;-75
2022/10/11 08:01:09;;;;;;;32.45;15.95;;;;;;;9.77;100.00;102314.88;5016806;28;20045;-75
2022/10/11 08:03:37;;;;;;;39.17;17.20;;;;;;;9.89;100.00;102309.28;5012598;28;20105;-73
2022/10/11 08:06:06;;;;;;;37.15;17.10;;;;;;;10.03;100.00;102306.88;5025366;28;20051;-76
2022/10/11 08:08:34;;;;;;;36.72;15.15;;;;;;;10.12;100.00;102315.03;5024483;28;20049;-75
2022/10/11 08:11:00;;;;;;;36.75;16.73;;;;;;;10.29;100.00;102318.28;5019337;28;20053;-73
2022/10/11 08:13:27;;;;;;;43.15;21.05;;;;;;;10.40;100.00;102316.56;5025492;28;20512;-73
2022/10/11 08:15:54;;;;;;;38.20;20.13;;;;;;;10.55;100.00;102312.19;5000535;28;20046;-76
2022/10/11 08:18:20;;;;;;;32.42;15.05;;;;;;;10.64;100.00;102320.31;5025021;28;20079;-73
2022/10/11 08:20:47;;;;;;;35.88;16.25;;;;;;;10.74;100.00;102315.03;5027828;28;20132;-75
2022/10/11 08:23:16;;;;;;;36.05;16.48;;;;;;;10.85;100.00;102312.50;5025590;28;20103;-74
2022/10/11 08:25:45;;;;;;;34.47;15.80;;;;;;;11.01;100.00;102313.25;5025728;28;20040;-74
2022/10/11 08:28:16;;;;;;;43.42;15.80;;;;;;;11.10;100.00;102311.88;5024167;28;20056;-74
2022/10/11 08:30:48;;;;;;;31.70;14.25;;;;;;;11.24;100.00;102311.41;5011805;28;20057;-74
2022/10/11 08:33:16;;;;;;;38.22;15.27;;;;;;;11.40;100.00;102320.44;5021767;28;20531;-74
2022/10/11 08:35:43;;;;;;;35.90;15.27;;;;;;;11.57;100.00;102320.00;5025875;28;20512;-74
2022/10/11 08:38:10;;;;;;;30.27;13.68;;;;;;;11.72;100.00;102319.16;5009372;28;20046;-74
2022/10/11 08:40:37;;;;;;;37.50;16.33;;;;;;;11.91;100.00;102319.13;5029136;28;20045;-74
2022/10/11 08:43:12;;;;;;;31.25;14.55;;;;;;;12.02;100.00;102326.47;5033046;28;20046;-74
2022/10/11 08:45:49;;;;;;;28.92;12.88;;;;;;;12.07;100.00;102328.13;5043103;28;20382;-73
2022/10/11 08:48:39;;;;;;;33.17;13.77;;;;;;;12.18;100.00;102323.56;5019345;28;20363;-74
2022/10/11 08:51:26;;;;;;;36.13;12.13;;;;;;;12.25;100.00;102334.81;5024710;28;20591;-75
2022/10/11 08:54:11;;;;;;;32.92;12.98;;;;;;;12.36;100.00;102324.69;5036661;28;20048;-76
2022/10/11 08:56:40;;;;;;;30.75;12.63;;;;;;;12.55;100.00;102333.75;5035283;28;20049;-76
2022/10/11 08:59:10;;;;;;;31.42;11.95;;;;;;;12.76;100.00;102322.19;5027499;28;20528;-75
2022/10/11 09:01:43;;;;;;;29.50;11.40;;;;;;;12.86;100.00;102329.88;5029292;28;20048;-77
2022/10/11 09:04:13;;;;;;;30.42;11.05;;;;;;;12.94;100.00;102310.16;5030708;28;20045;-77
2022/10/11 09:06:58;;;;;;;39.63;12.77;;;;;;;13.20;100.00;102334.38;5030471;28;20095;-77
2022/10/11 09:10:05;;;;;;;30.58;11.23;;;;;;;13.40;100.00;102327.47;5025460;28;20079;-76
2022/10/11 09:13:01;;;;;;;29.25;9.98;;;;;;;13.65;100.00;102325.81;5028410;28;20091;-76
2022/10/11 09:15:40;;;;;;;25.00;9.55;;;;;;;13.81;100.00;102323.63;5027801;28;20049;-75
2022/10/11 09:18:19;;;;;;;27.40;9.77;;;;;;;13.95;100.00;102337.69;5025607;28;20094;-73
2022/10/11 09:21:15;;;;;;;26.02;9.13;;;;;;;14.15;100.00;102335.50;5023153;28;20049;-74
2022/10/11 09:24:10;;;;;;;26.15;8.32;;;;;;;14.20;100.00;102333.16;4997022;28;20057;-74
2022/10/11 09:26:42;;;;;;;22.23;6.70;;;;;;;14.18;100.00;102340.31;5025017;28;20037;-73
2022/10/11 09:29:19;;;;;;;20.23;4.75;;;;;;;14.13;100.00;102330.31;5028048;28;21968;-74
2022/10/11 09:31:53;;;;;;;20.35;5.65;;;;;;;14.29;100.00;102328.13;5015838;28;20049;-74
2022/10/11 09:34:24;;;;;;;23.05;6.05;;;;;;;14.42;100.00;102329.44;5026566;28;20838;-74
2022/10/11 09:37:08;;;;;;;23.00;5.82;;;;;;;14.72;100.00;102332.06;5027803;28;20053;-73
2022/10/11 09:39:49;;;;;;;23.25;4.45;;;;;;;14.75;100.00;102311.78;5012767;28;20045;-73
2022/10/11 09:42:16;;;;;;;18.38;4.35;;;;;;;14.98;100.00;102324.28;5040178;28;20075;-73
2022/10/11 09:44:49;;;;;;;27.33;5.60;;;;;;;15.11;100.00;102325.56;5035969;28;20073;-74
2022/10/11 09:47:22;;;;;;;26.13;5.20;;;;;;;15.34;100.00;102326.09;5023970;28;20759;-77
2022/10/11 09:49:55;;;;;;;21.83;5.18;;;;;;;15.59;100.00;102328.19;5025072;28;20398;-78
2022/10/11 09:52:22;;;;;;;19.65;4.28;;;;;;;15.52;100.00;102330.97;5028574;28;20062;-77
2022/10/11 09:54:53;;;;;;;18.13;3.63;;;;;;;15.59;100.00;102325.41;5018165;28;20042;-77
2022/10/11 09:57:20;;;;;;;25.95;3.97;;;;;;;15.57;100.00;102325.00;5015451;28;20049;-77
2022/10/11 10:00:20;;;;;;;17.30;4.28;;;;;;;15.84;100.00;102334.66;5024024;28;20045;-77
2022/10/11 10:02:52;;;;;;;22.80;4.38;;;;;;;15.89;100.00;102321.09;4985515;28;20045;-74
2022/10/11 10:05:24;;;;;;;20.67;3.30;;;;;;;15.95;100.00;102329.91;5017325;28;20085;-75
2022/10/11 10:07:56;;;;;;;21.20;3.10;;;;;;;16.10;100.00;102331.53;5002572;28;20588;-75
2022/10/11 10:10:42;;;;;;;16.63;3.28;;;;;;;16.34;100.00;102336.34;5017664;28;20071;-75
2022/10/11 10:13:22;;;;;;;13.80;2.53;;;;;;;16.25;89.39;102333.16;5023910;28;20130;-75
2022/10/11 10:15:58;;;;;;;22.15;2.88;;;;;;;16.39;90.18;102339.56;5022574;28;20041;-75
2022/10/11 10:18:37;;;;;;;1.10;0.55;;;;;;;16.16;84.74;102336.31;5022114;28;20056;-76
2022/10/11 10:21:10;;;;;;;19.88;2.95;;;;;;;16.22;83.14;102342.31;5016692;28;20068;-75
2022/10/11 10:23:36;;;;;;;12.23;2.42;;;;;;;16.24;84.14;102334.34;5028158;28;20049;-75
2022/10/11 10:26:19;;;;;;;17.77;4.05;;;;;;;16.38;80.10;102337.97;5026628;28;20041;-76
2022/10/11 10:29:08;;;;;;;18.05;4.47;;;;;;;16.69;79.21;102328.81;5023882;28;20398;-75
2022/10/11 10:31:37;;;;;;;11.93;2.47;;;;;;;16.72;71.21;102335.59;4996306;28;20065;-76
2022/10/11 10:34:36;;;;;;;13.80;3.10;;;;;;;16.92;75.97;102339.56;5029467;28;20115;-76
2022/10/11 10:37:07;;;;;;;19.77;4.00;;;;;;;17.07;77.46;102324.34;5010282;28;20050;-73
2022/10/11 10:39:36;;;;;;;16.95;3.65;;;;;;;17.27;78.26;102328.28;5022643;28;20046;-75
2022/10/11 10:42:08;;;;;;;13.20;2.85;;;;;;;17.63;78.34;102327.78;5019903;28;20056;-75
2022/10/11 10:44:35;;;;;;;10.02;2.30;;;;;;;18.04;75.69;102330.75;5024890;28;20460;-74
2022/10/11 10:47:27;;;;;;;14.18;2.90;;;;;;;18.26;71.01;102329.38;5026633;28;20042;-74
2022/10/11 10:50:05;;;;;;;11.30;2.33;;;;;;;18.46;71.02;102324.88;5004523;28;20056;-75
2022/10/11 10:52:46;;;;;;;17.77;2.33;;;;;;;18.56;63.34;102331.63;5024528;28;20054;-75
2022/10/11 10:55:43;;;;;;;9.88;1.75;;;;;;;18.52;58.46;102326.03;5022302;28;20053;-73
2022/10/11 10:58:44;;;;;;;18.45;2.67;;;;;;;18.43;64.49;102327.72;5027367;28;20136;-73
2022/10/11 11:01:16;;;;;;;13.65;2.55;;;;;;;18.44;65.64;102324.50;5027511;28;20056;-75
2022/10/11 11:03:50;;;;;;;9.15;1.98;;;;;;;18.46;66.90;102316.47;5021831;28;20056;-75
2022/10/11 11:06:29;;;;;;;11.60;1.80;;;;;;;18.86;65.59;102323.34;5027227;28;20052;-73
2022/10/11 11:09:16;;;;;;;14.90;2.88;;;;;;;19.42;61.11;102319.91;5024702;28;20172;-75
2022/10/11 11:11:43;;;;;;;11.70;2.25;;;;;;;19.77;57.65;102316.66;5020031;28;20046;-75
2022/10/11 11:14:17;;;;;;;7.55;1.20;;;;;;;19.95;53.55;102325.63;5006800;28;20057;-75
2022/10/11 11:17:11;;;;;;;12.75;2.47;;;;;;;20.27;54.60;102326.78;5012938;28;20042;-75
2022/10/11 11:19:58;;;;;;;13.95;2.15;;;;;;;20.28;52.04;102319.94;5003717;28;20495;-75
2022/10/11 11:22:43;;;;;;;11.35;2.10;;;;;;;20.13;54.12;102323.38;5004936;28;20045;-74
2022/10/11 11:25:48;;;;;;;14.77;2.75;;;;;;;19.80;53.81;102321.41;5011523;28;20804;-75
2022/10/11 11:28:21;;;;;;;11.25;2.17;;;;;;;19.42;55.17;102322.72;4977777;28;20057;-75
2022/10/11 11:30:50;;;;;;;15.25;2.45;;;;;;;19.23;57.69;102326.91;5011994;28;20053;-75
2022/10/11 11:33:48;;;;;;;12.15;2.35;;;;;;;19.26;58.96;102320.50;4987273;28;20064;-75